createdAt,value
2022-11-29T00:01:14.616Z,101205.94
2022-11-29T00:03:40.958Z,101196.41
2022-11-29T00:06:08.639Z,101207.50
2022-11-29T00:08:36.233Z,101201.53
2022-11-29T00:11:10.692Z,101202.50
2022-11-29T00:13:37.410Z,101205.03
2022-11-29T00:16:05.862Z,101202.53
2022-11-29T00:18:32.731Z,101204.13
2022-11-29T00:20:59.074Z,101205.03
2022-11-29T00:23:25.800Z,101214.47
2022-11-29T00:25:52.806Z,101210.97
2022-11-29T00:28:19.150Z,101204.13
2022-11-29T00:30:45.512Z,101206.72
2022-11-29T00:33:11.821Z,101205.81
2022-11-29T00:35:38.107Z,101204.09
2022-11-29T00:38:04.398Z,101199.84
2022-11-29T00:40:30.691Z,101206.63
2022-11-29T00:42:57.094Z,101202.38
2022-11-29T00:45:23.385Z,101200.72
2022-11-29T00:47:49.667Z,101197.22
2022-11-29T00:50:16.049Z,101198.03
2022-11-29T00:52:42.348Z,101205.72
2022-11-29T00:55:09.105Z,101203.16
2022-11-29T00:57:35.399Z,101200.44
2022-11-29T01:00:01.708Z,101200.50
2022-11-29T01:02:28.057Z,101197.88
2022-11-29T01:04:54.387Z,101203.16
2022-11-29T01:07:20.748Z,101202.28
2022-11-29T01:09:47.073Z,101200.50
2022-11-29T01:12:13.370Z,101203.94
2022-11-29T01:14:39.798Z,101209.97
2022-11-29T01:17:06.144Z,101209.09
2022-11-29T01:19:32.536Z,101214.25
2022-11-29T01:21:58.898Z,101210.78
2022-11-29T01:24:25.213Z,101210.81
2022-11-29T01:26:51.497Z,101205.66
2022-11-29T01:29:17.813Z,101212.47
2022-11-29T01:31:44.115Z,101205.63
2022-11-29T01:34:10.672Z,101209.84
2022-11-29T01:36:37.018Z,101207.16
2022-11-29T01:39:04.907Z,101208.84
2022-11-29T01:41:33.651Z,101212.38
2022-11-29T01:44:04.238Z,101214.91
2022-11-29T01:46:42.687Z,101208.78
2022-11-29T01:49:14.763Z,101214.84
2022-11-29T01:51:45.852Z,101211.25
2022-11-29T01:54:13.757Z,101214.56
2022-11-29T01:56:41.514Z,101214.56
2022-11-29T01:59:11.125Z,101212.09
2022-11-29T02:01:38.138Z,101218.09
2022-11-29T02:04:04.715Z,101222.47
2022-11-29T02:06:31.416Z,101219.84
2022-11-29T02:08:57.925Z,101219.84
2022-11-29T02:12:09.145Z,101218.13
2022-11-29T02:15:00.244Z,101217.31
2022-11-29T02:17:43.981Z,101217.25
2022-11-29T02:20:25.487Z,101213.78
2022-11-29T02:23:05.847Z,101212.84
2022-11-29T02:25:46.588Z,101220.63
2022-11-29T02:28:30.163Z,101220.56
2022-11-29T02:31:31.780Z,101225.00
2022-11-29T02:34:28.438Z,101225.59
2022-11-29T02:37:22.444Z,101215.31
2022-11-29T02:39:57.166Z,101237.69
2022-11-29T02:42:55.662Z,101230.00
2022-11-29T02:45:56.296Z,101225.69
2022-11-29T02:48:49.600Z,101240.31
2022-11-29T02:51:33.607Z,101235.25
2022-11-29T02:54:41.274Z,101231.75
2022-11-29T02:57:21.467Z,101230.88
2022-11-29T02:59:53.728Z,101239.47
2022-11-29T03:02:29.485Z,101240.31
2022-11-29T03:04:58.833Z,101238.50
2022-11-29T03:07:30.556Z,101247.22
2022-11-29T03:10:24.800Z,101241.13
2022-11-29T03:12:53.871Z,101246.09
2022-11-29T03:15:41.358Z,101246.09
2022-11-29T03:18:22.254Z,101255.66
2022-11-29T03:20:58.339Z,101253.03
2022-11-29T03:23:32.469Z,101266.03
2022-11-29T03:26:10.724Z,101266.72
2022-11-29T03:28:55.832Z,101265.88
2022-11-29T03:31:35.801Z,101273.81
2022-11-29T03:34:12.774Z,101269.59
2022-11-29T03:36:45.431Z,101270.31
2022-11-29T03:39:19.198Z,101272.97
2022-11-29T03:42:12.622Z,101262.72
2022-11-29T03:45:05.620Z,101271.19
2022-11-29T03:47:40.575Z,101272.91
2022-11-29T03:50:14.940Z,101267.63
2022-11-29T03:52:55.288Z,101264.97
2022-11-29T03:55:21.517Z,101272.59
2022-11-29T03:58:21.724Z,101275.34
2022-11-29T04:00:47.934Z,101266.84
2022-11-29T04:03:34.039Z,101273.53
2022-11-29T04:06:23.901Z,101277.06
2022-11-29T04:09:10.119Z,101279.50
2022-11-29T04:11:58.857Z,101281.19
2022-11-29T04:14:54.420Z,101281.06
2022-11-29T04:17:58.457Z,101285.53
2022-11-29T04:21:05.509Z,101285.53
2022-11-29T04:23:52.145Z,101283.94
2022-11-29T04:26:44.815Z,101285.41
2022-11-29T04:29:53.755Z,101292.41
2022-11-29T04:32:39.533Z,101298.41
2022-11-29T04:35:51.511Z,101305.41
2022-11-29T04:38:39.805Z,101305.34
2022-11-29T04:41:23.667Z,101307.72
2022-11-29T04:44:21.213Z,101302.59
2022-11-29T04:47:27.603Z,101316.44
2022-11-29T04:50:26.990Z,101307.78
2022-11-29T04:53:34.940Z,101322.47
2022-11-29T04:56:06.335Z,101316.50
2022-11-29T04:58:41.775Z,101319.03
2022-11-29T05:01:43.286Z,101329.38
2022-11-29T05:04:40.035Z,101329.38
2022-11-29T05:07:17.416Z,101337.84
2022-11-29T05:10:24.990Z,101340.56
2022-11-29T05:13:13.541Z,101334.53
2022-11-29T05:16:02.994Z,101341.22
2022-11-29T05:19:04.069Z,101345.53
2022-11-29T05:21:57.581Z,101345.72
2022-11-29T05:24:42.989Z,101348.28
2022-11-29T05:27:22.988Z,101344.84
2022-11-29T05:30:04.114Z,101357.53
2022-11-29T05:32:35.899Z,101349.88
2022-11-29T05:35:13.665Z,101355.88
2022-11-29T05:37:52.452Z,101358.25
2022-11-29T05:40:33.976Z,101363.47
2022-11-29T05:43:23.868Z,101363.47
2022-11-29T05:46:16.299Z,101371.22
2022-11-29T05:49:24.143Z,101378.19
2022-11-29T05:52:05.382Z,101373.69
2022-11-29T05:54:40.569Z,101370.34
2022-11-29T05:57:24.835Z,101374.63
2022-11-29T05:59:51.745Z,101379.91
2022-11-29T06:02:34.733Z,101384.09
2022-11-29T06:05:13.525Z,101389.81
2022-11-29T06:07:51.467Z,101386.53
2022-11-29T06:10:21.157Z,101400.38
2022-11-29T06:13:32.158Z,101396.97
2022-11-29T06:16:07.402Z,101396.81
2022-11-29T06:18:53.678Z,101391.53
2022-11-29T06:21:42.729Z,101395.88
2022-11-29T06:24:29.682Z,101396.59
2022-11-29T06:27:07.706Z,101412.13
2022-11-29T06:29:33.988Z,101400.13
2022-11-29T06:32:11.708Z,101401.84
2022-11-29T06:34:59.583Z,101408.00
2022-11-29T06:37:50.364Z,101414.06
2022-11-29T06:40:17.338Z,101420.91
2022-11-29T06:42:43.839Z,101428.69
2022-11-29T06:45:13.638Z,101435.44
2022-11-29T06:47:46.459Z,101437.94
2022-11-29T06:50:40.849Z,101439.94
2022-11-29T06:53:14.110Z,101438.91
2022-11-29T06:56:05.089Z,101444.16
2022-11-29T06:58:59.916Z,101437.44
2022-11-29T07:01:36.856Z,101450.38
2022-11-29T07:04:20.026Z,101450.38
2022-11-29T07:06:46.654Z,101447.72
2022-11-29T07:09:16.373Z,101445.94
2022-11-29T07:11:43.681Z,101454.63
2022-11-29T07:14:10.731Z,101454.66
2022-11-29T07:16:47.300Z,101458.78
2022-11-29T07:19:35.100Z,101451.97
2022-11-29T07:22:24.352Z,101454.59
2022-11-29T07:25:09.151Z,101458.56
2022-11-29T07:27:49.153Z,101462.97
2022-11-29T07:30:54.823Z,101463.22
2022-11-29T07:33:34.188Z,101470.91
2022-11-29T07:36:14.417Z,101474.38
2022-11-29T07:39:08.756Z,101477.03
2022-11-29T07:41:39.941Z,101479.66
2022-11-29T07:44:18.458Z,101474.44
2022-11-29T07:46:44.842Z,101474.50
2022-11-29T07:49:11.509Z,101473.66
2022-11-29T07:51:37.983Z,101474.44
2022-11-29T07:54:05.300Z,101481.97
2022-11-29T07:56:31.644Z,101483.66
2022-11-29T07:58:57.977Z,101482.94
2022-11-29T08:01:24.374Z,101484.75
2022-11-29T08:03:50.692Z,101488.31
2022-11-29T08:06:24.119Z,101488.38
2022-11-29T08:08:50.393Z,101485.56
2022-11-29T08:11:16.667Z,101492.25
2022-11-29T08:13:42.973Z,101490.75
2022-11-29T08:16:09.344Z,101487.59
2022-11-29T08:18:38.846Z,101493.44
2022-11-29T08:21:07.184Z,101498.56
2022-11-29T08:23:33.479Z,101495.97
2022-11-29T08:26:01.228Z,101494.19
2022-11-29T08:28:27.744Z,101495.25
2022-11-29T08:31:01.790Z,101498.78
2022-11-29T08:33:29.018Z,101491.97
2022-11-29T08:35:55.732Z,101501.41
2022-11-29T08:38:22.643Z,101498.84
2022-11-29T08:40:49.083Z,101500.78
2022-11-29T08:43:15.365Z,101495.63
2022-11-29T08:45:41.717Z,101500.03
2022-11-29T08:48:08.128Z,101495.69
2022-11-29T08:50:34.508Z,101502.47
2022-11-29T08:53:19.294Z,101499.13
2022-11-29T08:55:46.557Z,101501.19
2022-11-29T08:58:15.037Z,101508.09
2022-11-29T09:00:43.834Z,101508.94
2022-11-29T09:03:29.075Z,101508.72
2022-11-29T09:05:55.537Z,101504.50
2022-11-29T09:08:21.946Z,101505.47
2022-11-29T09:10:49.140Z,101518.28
2022-11-29T09:13:15.703Z,101510.63
2022-11-29T09:15:43.438Z,101513.34
2022-11-29T09:18:10.237Z,101520.16
2022-11-29T09:20:36.801Z,101529.47
2022-11-29T09:23:03.550Z,101523.72
2022-11-29T09:25:30.137Z,101521.16
2022-11-29T09:27:58.238Z,101534.19
2022-11-29T09:30:24.645Z,101539.41
2022-11-29T09:32:50.929Z,101532.38
2022-11-29T09:35:17.390Z,101532.38
2022-11-29T09:37:43.736Z,101538.47
2022-11-29T09:40:24.814Z,101545.34
2022-11-29T09:43:00.517Z,101542.84
2022-11-29T09:45:31.985Z,101553.19
2022-11-29T09:48:25.704Z,101547.34
2022-11-29T09:51:13.813Z,101548.34
2022-11-29T09:53:50.878Z,101550.97
2022-11-29T09:56:34.197Z,101546.00
2022-11-29T09:59:11.732Z,101547.34
2022-11-29T10:01:42.868Z,101553.44
2022-11-29T10:04:15.990Z,101545.94
2022-11-29T10:06:49.421Z,101555.13
2022-11-29T10:09:32.248Z,101556.00
2022-11-29T10:12:12.558Z,101553.44
2022-11-29T10:14:57.315Z,101552.75
2022-11-29T10:17:44.819Z,101550.16
2022-11-29T10:20:24.124Z,101558.84
2022-11-29T10:23:06.712Z,101556.91
2022-11-29T10:25:45.116Z,101563.41
2022-11-29T10:28:18.362Z,101567.84
2022-11-29T10:30:46.160Z,101559.34
2022-11-29T10:33:26.795Z,101562.75
2022-11-29T10:35:58.074Z,101562.75
2022-11-29T10:38:32.051Z,101572.25
2022-11-29T10:41:09.138Z,101570.53
2022-11-29T10:43:37.318Z,101577.16
2022-11-29T10:46:05.831Z,101578.97
2022-11-29T10:48:33.983Z,101573.72
2022-11-29T10:51:01.210Z,101579.00
2022-11-29T10:53:31.965Z,101574.63
2022-11-29T10:56:08.889Z,101574.63
2022-11-29T10:58:35.712Z,101573.06
2022-11-29T11:01:07.562Z,101567.91
2022-11-29T11:03:54.954Z,101568.81
2022-11-29T11:06:28.401Z,101565.31
2022-11-29T11:08:57.454Z,101557.59
2022-11-29T11:11:33.601Z,101563.06
2022-11-29T11:14:04.661Z,101562.16
2022-11-29T11:16:35.722Z,101558.72
2022-11-29T11:19:33.829Z,101567.31
2022-11-29T11:22:02.577Z,101566.66
2022-11-29T11:24:31.694Z,101570.03
2022-11-29T11:26:59.228Z,101568.16
2022-11-29T11:29:31.325Z,101570.81
2022-11-29T11:31:59.814Z,101575.09
2022-11-29T11:34:37.363Z,101563.94
2022-11-29T11:37:16.288Z,101574.41
2022-11-29T11:39:43.746Z,101576.88
2022-11-29T11:42:34.977Z,101576.03
2022-11-29T11:45:03.200Z,101577.09
2022-11-29T11:47:32.497Z,101573.78
2022-11-29T11:50:04.636Z,101573.53
2022-11-29T11:52:39.657Z,101583.06
2022-11-29T11:55:22.545Z,101580.19
2022-11-29T11:58:10.328Z,101580.34
2022-11-29T12:01:04.076Z,101591.50
2022-11-29T12:03:52.575Z,101588.88
2022-11-29T12:06:40.874Z,101587.94
2022-11-29T12:09:31.326Z,101594.94
2022-11-29T12:12:23.518Z,101593.88
2022-11-29T12:15:07.143Z,101586.03
2022-11-29T12:17:58.415Z,101594.47
2022-11-29T12:20:33.644Z,101595.38
2022-11-29T12:23:09.308Z,101600.63
2022-11-29T12:25:56.189Z,101596.22
2022-11-29T12:28:28.790Z,101604.00
2022-11-29T12:31:12.258Z,101604.22
2022-11-29T12:33:47.580Z,101606.97
2022-11-29T12:36:35.322Z,101605.22
2022-11-29T12:39:31.624Z,101611.41
2022-11-29T12:42:07.047Z,101618.19
2022-11-29T12:44:42.994Z,101614.13
2022-11-29T12:47:37.904Z,101612.22
2022-11-29T12:50:28.241Z,101618.19
2022-11-29T12:53:12.291Z,101613.94
2022-11-29T12:56:15.885Z,101614.66
2022-11-29T12:59:13.208Z,101618.03
2022-11-29T13:01:57.765Z,101620.66
2022-11-29T13:04:59.936Z,101620.94
2022-11-29T13:07:33.360Z,101628.03
2022-11-29T13:10:18.854Z,101617.78
2022-11-29T13:12:53.772Z,101622.72
2022-11-29T13:15:23.174Z,101624.41
2022-11-29T13:18:00.187Z,101625.31
2022-11-29T13:20:46.882Z,101631.44
2022-11-29T13:24:00.703Z,101629.81
2022-11-29T13:26:27.232Z,101634.78
2022-11-29T13:28:54.329Z,101625.41
2022-11-29T13:31:23.670Z,101632.34
2022-11-29T13:34:18.383Z,101635.78
2022-11-29T13:37:12.538Z,101640.13
2022-11-29T13:39:57.922Z,101635.00
2022-11-29T13:42:45.201Z,101639.28
2022-11-29T13:45:23.679Z,101644.41
2022-11-29T13:47:55.702Z,101639.28
2022-11-29T13:50:45.868Z,101634.84
2022-11-29T13:53:21.579Z,101642.50
2022-11-29T13:56:02.159Z,101634.78
2022-11-29T13:58:28.476Z,101647.69
2022-11-29T14:01:01.181Z,101644.31
2022-11-29T14:03:32.412Z,101646.97
2022-11-29T14:06:01.754Z,101643.56
2022-11-29T14:08:48.067Z,101646.03
2022-11-29T14:11:24.431Z,101647.75
2022-11-29T14:14:03.381Z,101645.25
2022-11-29T14:16:45.637Z,101648.56
2022-11-29T14:19:21.364Z,101646.75
2022-11-29T14:22:02.933Z,101650.19
2022-11-29T14:24:32.280Z,101644.97
2022-11-29T14:27:08.739Z,101651.94
2022-11-29T14:29:47.417Z,101651.06
2022-11-29T14:32:24.347Z,101650.13
2022-11-29T14:35:10.895Z,101650.25
2022-11-29T14:38:02.489Z,101663.16
2022-11-29T14:40:41.198Z,101658.78
2022-11-29T14:43:28.513Z,101658.13
2022-11-29T14:46:08.461Z,101656.56
2022-11-29T14:48:35.650Z,101659.78
2022-11-29T14:51:09.804Z,101659.66
2022-11-29T14:53:37.627Z,101669.31
2022-11-29T14:56:43.587Z,101663.31
2022-11-29T14:59:47.517Z,101669.41
2022-11-29T15:02:19.916Z,101669.38
2022-11-29T15:04:48.751Z,101673.56
2022-11-29T15:07:30.272Z,101667.41
2022-11-29T15:10:02.967Z,101665.81
2022-11-29T15:12:35.671Z,101677.78
2022-11-29T15:15:20.691Z,101674.19
2022-11-29T15:18:14.191Z,101675.91
2022-11-29T15:21:20.973Z,101679.41
2022-11-29T15:23:47.280Z,101676.78
2022-11-29T15:26:19.327Z,101686.31
2022-11-29T15:28:45.788Z,101681.06
2022-11-29T15:31:19.948Z,101685.38
2022-11-29T15:33:48.541Z,101682.78
2022-11-29T15:36:21.874Z,101684.59
2022-11-29T15:38:53.990Z,101685.38
2022-11-29T15:41:27.837Z,101697.47
2022-11-29T15:44:05.623Z,101697.47
2022-11-29T15:46:34.382Z,101701.78
2022-11-29T15:49:27.336Z,101699.13
2022-11-29T15:51:59.951Z,101699.75
2022-11-29T15:54:37.346Z,101702.38
2022-11-29T15:57:12.534Z,101707.72
2022-11-29T16:00:01.517Z,101707.72
2022-11-29T16:02:38.161Z,101710.44
2022-11-29T16:05:36.829Z,101708.59
2022-11-29T16:08:06.974Z,101715.34
2022-11-29T16:10:43.642Z,101711.16
2022-11-29T16:13:24.979Z,101717.13
2022-11-29T16:16:08.814Z,101724.16
2022-11-29T16:18:36.816Z,101719.00
2022-11-29T16:21:06.025Z,101722.56
2022-11-29T16:23:42.051Z,101724.88
2022-11-29T16:26:16.671Z,101725.78
2022-11-29T16:28:45.872Z,101725.00
2022-11-29T16:31:20.196Z,101727.44
2022-11-29T16:33:48.957Z,101731.00
2022-11-29T16:36:22.550Z,101727.66
2022-11-29T16:38:52.433Z,101734.47
2022-11-29T16:41:33.968Z,101734.47
2022-11-29T16:44:03.171Z,101731.16
2022-11-29T16:46:35.119Z,101730.09
2022-11-29T16:49:23.281Z,101734.47
2022-11-29T16:51:51.411Z,101734.63
2022-11-29T16:54:26.069Z,101740.56
2022-11-29T16:56:53.617Z,101744.81
2022-11-29T16:59:26.465Z,101747.50
2022-11-29T17:01:55.875Z,101751.09
2022-11-29T17:04:23.992Z,101762.28
2022-11-29T17:06:52.176Z,101752.63
2022-11-29T17:09:27.665Z,101757.03
2022-11-29T17:11:54.719Z,101760.34
2022-11-29T17:14:21.496Z,101765.44
2022-11-29T17:16:51.605Z,101765.28
2022-11-29T17:19:19.634Z,101762.63
2022-11-29T17:21:45.951Z,101768.63
2022-11-29T17:24:15.528Z,101766.13
2022-11-29T17:26:42.956Z,101767.94
2022-11-29T17:29:13.974Z,101771.44
2022-11-29T17:31:42.359Z,101768.72
2022-11-29T17:34:08.766Z,101774.75
2022-11-29T17:36:35.261Z,101780.63
2022-11-29T17:39:04.182Z,101784.13
2022-11-29T17:41:30.747Z,101778.03
2022-11-29T17:43:57.732Z,101789.06
2022-11-29T17:46:28.460Z,101783.88
2022-11-29T17:48:55.375Z,101793.50
2022-11-29T17:54:10.889Z,101790.16
2022-11-29T17:56:37.232Z,101791.94
2022-11-29T17:59:05.025Z,101795.44
2022-11-29T18:01:33.551Z,101798.97
2022-11-29T18:04:02.561Z,101795.47
2022-11-29T18:06:35.739Z,101792.78
2022-11-29T18:09:03.744Z,101798.13
2022-11-29T18:11:49.951Z,101798.75
2022-11-29T18:14:23.198Z,101802.94
2022-11-29T18:16:50.107Z,101806.41
2022-11-29T18:19:18.946Z,101809.03
2022-11-29T18:21:45.771Z,101805.75
2022-11-29T18:24:12.566Z,101814.53
2022-11-29T18:26:39.714Z,101809.16
2022-11-29T18:29:07.249Z,101816.88
2022-11-29T18:31:35.994Z,101821.97
2022-11-29T18:34:06.972Z,101819.28
2022-11-29T18:36:35.995Z,101826.34
2022-11-29T18:39:06.292Z,101828.97
2022-11-29T18:41:33.194Z,101834.91
2022-11-29T18:44:05.242Z,101831.56
2022-11-29T18:46:32.704Z,101832.34
2022-11-29T18:49:00.865Z,101832.25
2022-11-29T18:51:28.947Z,101831.41
2022-11-29T18:53:55.775Z,101834.69
2022-11-29T18:56:24.410Z,101829.72
2022-11-29T18:58:58.609Z,101837.38
2022-11-29T19:01:28.009Z,101835.53
2022-11-29T19:03:57.343Z,101834.06
2022-11-29T19:06:27.681Z,101837.53
2022-11-29T19:08:54.566Z,101832.53
2022-11-29T19:11:22.725Z,101840.09
2022-11-29T19:13:56.086Z,101836.56
2022-11-29T19:16:24.238Z,101834.72
2022-11-29T19:18:52.975Z,101832.22
2022-11-29T19:21:21.071Z,101840.00
2022-11-29T19:23:53.305Z,101838.06
2022-11-29T19:26:20.791Z,101842.34
2022-11-29T19:28:47.405Z,101838.88
2022-11-29T19:31:15.347Z,101840.78
2022-11-29T19:33:44.610Z,101832.72
2022-11-29T19:36:16.877Z,101830.31
2022-11-29T19:38:46.573Z,101840.47
2022-11-29T19:41:25.446Z,101842.25
2022-11-29T19:43:52.737Z,101838.78
2022-11-29T19:46:21.401Z,101839.84
2022-11-29T19:48:48.109Z,101837.25
2022-11-29T19:51:18.918Z,101838.97
2022-11-29T19:53:46.811Z,101846.78
2022-11-29T19:56:15.405Z,101849.22
2022-11-29T19:58:42.882Z,101847.69
2022-11-29T20:01:12.174Z,101848.47
2022-11-29T20:03:39.382Z,101852.13
2022-11-29T20:06:06.477Z,101856.50
2022-11-29T20:08:33.049Z,101861.81
2022-11-29T20:11:14.436Z,101855.59
2022-11-29T20:13:42.837Z,101853.75
2022-11-29T20:16:12.319Z,101857.28
2022-11-29T20:18:43.517Z,101853.00
2022-11-29T20:21:15.442Z,101864.09
2022-11-29T20:23:42.940Z,101864.16
2022-11-29T20:26:15.356Z,101870.25
2022-11-29T20:28:42.821Z,101866.53
2022-11-29T20:31:12.750Z,101864.72
2022-11-29T20:33:41.006Z,101864.72
2022-11-29T20:36:16.115Z,101850.94
2022-11-29T20:39:03.112Z,101856.09
2022-11-29T20:42:11.335Z,101856.88
2022-11-29T20:44:46.954Z,101858.50
2022-11-29T20:47:19.176Z,101862.75
2022-11-29T20:49:46.349Z,101867.97
2022-11-29T20:52:31.250Z,101857.34
2022-11-29T20:54:57.560Z,101867.88
2022-11-29T20:57:23.858Z,101867.88
2022-11-29T20:59:50.237Z,101878.38
2022-11-29T21:02:16.622Z,101869.88
2022-11-29T21:04:43.023Z,101878.38
2022-11-29T21:07:09.349Z,101874.78
2022-11-29T21:09:35.656Z,101876.50
2022-11-29T21:12:02.358Z,101879.16
2022-11-29T21:14:29.043Z,101870.72
2022-11-29T21:16:55.662Z,101874.78
2022-11-29T21:19:25.270Z,101875.72
2022-11-29T21:22:38.108Z,101875.63
2022-11-29T21:25:17.666Z,101877.34
2022-11-29T21:27:44.348Z,101873.06
2022-11-29T21:30:19.149Z,101874.69
2022-11-29T21:32:46.013Z,101877.34
2022-11-29T21:35:13.218Z,101879.00
2022-11-29T21:37:40.620Z,101878.03
2022-11-29T21:40:07.683Z,101894.38
2022-11-29T21:42:33.973Z,101895.34
2022-11-29T21:45:00.314Z,101898.94
2022-11-29T21:47:26.680Z,101899.69
2022-11-29T21:49:54.511Z,101891.69
2022-11-29T21:52:22.524Z,101891.81
2022-11-29T21:54:49.580Z,101900.50
2022-11-29T21:57:15.992Z,101899.63
2022-11-29T21:59:42.295Z,101894.47
2022-11-29T22:02:08.721Z,101901.25
2022-11-29T22:04:35.133Z,101897.03
2022-11-29T22:07:01.465Z,101903.91
2022-11-29T22:09:27.765Z,101898.69
2022-11-29T22:11:54.110Z,101904.41
2022-11-29T22:14:20.464Z,101902.78
2022-11-29T22:16:52.566Z,101901.22
2022-11-29T22:19:22.660Z,101902.97
2022-11-29T22:21:54.294Z,101901.31
2022-11-29T22:24:23.005Z,101910.88
2022-11-29T22:26:51.003Z,101912.63
2022-11-29T22:29:17.529Z,101904.69
2022-11-29T22:31:46.874Z,101909.31
2022-11-29T22:34:13.474Z,101914.66
2022-11-29T22:36:40.198Z,101912.09
2022-11-29T22:39:07.380Z,101912.94
2022-11-29T22:41:35.190Z,101910.53
2022-11-29T22:44:02.704Z,101909.41
2022-11-29T22:46:29.546Z,101916.34
2022-11-29T22:48:58.174Z,101919.56
2022-11-29T22:51:27.173Z,101911.75
2022-11-29T22:53:54.895Z,101910.19
2022-11-29T22:56:22.746Z,101914.59
2022-11-29T22:58:49.248Z,101918.88
2022-11-29T23:01:20.403Z,101919.56
2022-11-29T23:03:53.588Z,101925.34
2022-11-29T23:06:25.836Z,101927.53
2022-11-29T23:08:54.355Z,101929.38
2022-11-29T23:11:26.996Z,101929.53
2022-11-29T23:13:54.168Z,101926.13
2022-11-29T23:16:27.322Z,101930.28
2022-11-29T23:18:54.885Z,101929.44
2022-11-29T23:21:23.880Z,101935.44
2022-11-29T23:23:56.105Z,101933.84
2022-11-29T23:26:40.370Z,101935.63
2022-11-29T23:29:09.642Z,101933.31
2022-11-29T23:31:36.042Z,101936.75
2022-11-29T23:34:33.656Z,101932.44
2022-11-29T23:36:59.926Z,101922.13
2022-11-29T23:39:26.227Z,101933.22
2022-11-29T23:41:52.546Z,101928.34
2022-11-29T23:44:18.852Z,101931.69
2022-11-29T23:46:45.207Z,101932.63
2022-11-29T23:49:11.576Z,101928.66
2022-11-29T23:51:37.866Z,101929.53
2022-11-29T23:54:04.251Z,101936.59
2022-11-29T23:56:35.015Z,101937.53
2022-11-29T23:59:01.900Z,101940.25
